Time;durP1;ratioP1;P1;durP2;ratioP2;P2;SDS_P1;SDS_P2;PMS_P1;PMS_P2;Temp;Humidity;BMP_temperature;BMP_pressure;BME280_temperature;BME280_humidity;BME280_pressure;Samples;Min_cycle;Max_cycle;Signal;HPM_P1;HPM_P2
2022/02/24 00:00:53;;;;;;;8.05;4.55;;;;;;;5.20;81.64;99449.16;1676664;84;21829;-63
2022/02/24 00:03:20;;;;;;;8.30;4.60;;;;;;;5.19;81.66;99457.55;1745068;81;20884;-63
2022/02/24 00:05:47;;;;;;;9.10;4.42;;;;;;;5.18;81.64;99459.86;1728670;81;20991;-63
2022/02/24 00:08:14;;;;;;;8.75;4.92;;;;;;;5.18;81.66;99465.14;1745815;81;21544;-63
2022/02/24 00:10:40;;;;;;;9.28;4.85;;;;;;;5.15;81.69;99461.45;1745192;81;21833;-62
2022/02/24 00:13:07;;;;;;;9.18;4.70;;;;;;;5.17;81.71;99458.66;1696869;84;21005;-63
2022/02/24 00:15:34;;;;;;;8.30;5.08;;;;;;;5.17;81.70;99463.45;1757781;81;21006;-62
2022/02/24 00:18:00;;;;;;;7.83;4.28;;;;;;;5.17;81.71;99466.58;1743007;81;20860;-64
2022/02/24 00:20:27;;;;;;;6.97;4.70;;;;;;;5.16;81.74;99463.61;1700871;83;21508;-62
2022/02/24 00:22:54;;;;;;;7.00;4.72;;;;;;;5.16;81.77;99458.33;1749916;80;21211;-63
2022/02/24 00:25:20;;;;;;;8.25;5.20;;;;;;;5.16;81.83;99465.77;1732021;82;20894;-62
2022/02/24 00:27:46;;;;;;;9.68;5.28;;;;;;;5.17;81.87;99466.58;1732709;80;21045;-64
2022/02/24 00:30:13;;;;;;;6.85;4.87;;;;;;;5.17;81.87;99465.25;1744975;81;21429;-63
2022/02/24 00:32:40;;;;;;;9.28;5.10;;;;;;;5.17;81.90;99469.21;1740530;81;20880;-66
2022/02/24 00:35:08;;;;;;;9.55;5.78;;;;;;;5.18;81.94;99469.57;1746787;81;22364;-62
2022/02/24 00:37:35;;;;;;;10.85;5.60;;;;;;;5.17;81.94;99468.73;1740569;81;21541;-63
2022/02/24 00:40:02;;;;;;;6.90;4.42;;;;;;;5.17;82.00;99470.05;1740062;82;21001;-63
2022/02/24 00:42:28;;;;;;;9.60;4.45;;;;;;;5.17;82.05;99471.84;1738755;81;21019;-63
2022/02/24 00:44:55;;;;;;;6.85;4.55;;;;;;;5.17;82.09;99470.53;1738644;81;21532;-63
2022/02/24 00:47:21;;;;;;;6.97;3.77;;;;;;;5.18;82.09;99476.17;1735024;81;21146;-63
2022/02/24 00:49:48;;;;;;;6.60;3.72;;;;;;;5.17;82.12;99479.76;1759366;80;20971;-63
2022/02/24 00:52:14;;;;;;;8.63;3.50;;;;;;;5.17;82.12;99478.44;1752664;80;21014;-62
2022/02/24 00:54:44;;;;;;;4.97;3.83;;;;;;;5.16;82.12;99482.07;1759076;80;20967;-62
2022/02/24 00:57:11;;;;;;;6.00;4.00;;;;;;;5.16;82.16;99484.70;1744051;82;20928;-63
2022/02/24 00:59:38;;;;;;;6.10;3.80;;;;;;;5.17;82.27;99487.67;1745822;80;21155;-63
2022/02/24 01:02:04;;;;;;;5.53;3.70;;;;;;;5.16;82.24;99486.02;1748199;80;21607;-62
2022/02/24 01:04:30;;;;;;;6.90;4.12;;;;;;;5.17;82.27;99479.76;1740401;81;20843;-62
2022/02/24 01:06:57;;;;;;;5.62;4.15;;;;;;;5.18;82.26;99485.39;1763917;80;21480;-62
2022/02/24 01:09:24;;;;;;;6.05;4.22;;;;;;;5.18;82.28;99489.35;1728701;81;21090;-62
2022/02/24 01:11:50;;;;;;;6.70;4.65;;;;;;;5.18;82.24;99483.59;1758894;80;21159;-62
2022/02/24 01:14:17;;;;;;;6.65;4.67;;;;;;;5.19;82.17;99483.13;1739574;81;20980;-62
2022/02/24 01:16:45;;;;;;;6.95;4.85;;;;;;;5.18;82.14;99486.71;1755115;80;20921;-62
2022/02/24 01:19:11;;;;;;;6.08;3.90;;;;;;;5.18;82.14;99484.92;1744671;81;21442;-63
2022/02/24 01:21:38;;;;;;;5.80;3.50;;;;;;;5.19;82.11;99487.08;1745060;82;20944;-62
2022/02/24 01:24:05;;;;;;;6.30;4.00;;;;;;;5.19;82.09;99486.56;1749183;80;21154;-63
2022/02/24 01:26:31;;;;;;;6.47;3.65;;;;;;;5.20;82.04;99482.97;1756333;80;20880;-62
2022/02/24 01:28:58;;;;;;;5.92;3.50;;;;;;;5.19;82.03;99489.71;1747507;80;20939;-62
2022/02/24 01:31:25;;;;;;;4.62;3.62;;;;;;;5.19;82.03;99494.98;1749716;81;20948;-62
2022/02/24 01:33:52;;;;;;;8.05;3.75;;;;;;;5.18;82.03;99491.98;1744281;81;21008;-62
2022/02/24 01:36:20;;;;;;;5.80;3.33;;;;;;;5.18;82.03;99494.62;1737913;81;20990;-63
2022/02/24 01:38:47;;;;;;;3.15;2.75;;;;;;;5.18;82.01;99496.78;1747410;81;20927;-63
2022/02/24 01:41:13;;;;;;;6.65;3.83;;;;;;;5.19;81.95;99487.88;1744738;80;21015;-63
2022/02/24 01:43:46;;;;;;;6.87;3.35;;;;;;;5.19;81.89;99497.11;1748263;81;21007;-62
2022/02/24 01:46:13;;;;;;;7.12;4.10;;;;;;;5.18;81.87;99491.52;1742835;81;20924;-63
2022/02/24 01:48:40;;;;;;;6.00;3.52;;;;;;;5.17;81.86;99492.95;1747979;81;21161;-63
2022/02/24 01:51:09;;;;;;;5.70;3.67;;;;;;;5.16;81.81;99488.66;1746197;81;20932;-63
2022/02/24 01:53:36;;;;;;;5.75;3.35;;;;;;;5.12;81.76;99490.72;1741300;81;20988;-64
2022/02/24 01:56:05;;;;;;;6.72;3.72;;;;;;;5.10;81.68;99495.78;1746334;81;20987;-63
2022/02/24 01:58:32;;;;;;;6.05;3.60;;;;;;;5.08;81.72;99500.37;1745604;81;20911;-62
2022/02/24 02:01:00;;;;;;;6.80;3.00;;;;;;;5.05;81.76;99500.16;1738977;81;20932;-62
2022/02/24 02:03:27;;;;;;;7.10;3.87;;;;;;;5.05;81.84;99499.31;1742638;81;21514;-62
2022/02/24 02:05:56;;;;;;;5.47;3.60;;;;;;;5.04;81.90;99505.06;1736897;81;21075;-62
2022/02/24 02:08:23;;;;;;;4.60;3.08;;;;;;;5.05;82.02;99508.55;1742156;81;21059;-63
2022/02/24 02:10:50;;;;;;;3.75;2.95;;;;;;;5.05;82.04;99508.55;1744094;81;20964;-62
2022/02/24 02:13:16;;;;;;;4.58;3.02;;;;;;;5.05;82.08;99513.81;1744246;81;21222;-61
2022/02/24 02:15:44;;;;;;;4.83;3.20;;;;;;;5.07;82.11;99510.55;1744240;81;21470;-62
2022/02/24 02:18:10;;;;;;;5.22;3.42;;;;;;;5.07;82.15;99519.30;1744084;81;21459;-63
2022/02/24 02:20:39;;;;;;;5.30;3.55;;;;;;;5.07;82.15;99519.30;1712939;82;20948;-62
2022/02/24 02:23:06;;;;;;;6.65;3.50;;;;;;;5.09;82.15;99520.47;1762311;81;20931;-62
2022/02/24 02:25:33;;;;;;;5.70;4.12;;;;;;;5.09;82.12;99520.00;1765825;80;21979;-62
2022/02/24 02:28:00;;;;;;;6.40;4.33;;;;;;;5.10;82.16;99526.11;1756050;80;20975;-62
2022/02/24 02:30:26;;;;;;;4.85;3.65;;;;;;;5.10;82.22;99530.06;1748674;80;21014;-62
2022/02/24 02:32:54;;;;;;;6.85;3.67;;;;;;;5.13;82.20;99535.08;1767199;80;21571;-63
2022/02/24 02:35:21;;;;;;;8.25;4.12;;;;;;;5.15;82.16;99541.05;1770331;80;21410;-62
2022/02/24 02:37:48;;;;;;;8.03;3.85;;;;;;;5.15;82.07;99543.68;1758697;80;21219;-62
2022/02/24 02:40:15;;;;;;;6.62;3.67;;;;;;;5.15;81.97;99556.87;1700230;84;20951;-62
2022/02/24 02:42:41;;;;;;;5.50;3.35;;;;;;;5.14;81.97;99555.19;1716340;83;20963;-63
2022/02/24 02:45:09;;;;;;;6.42;3.50;;;;;;;5.12;82.01;99552.70;1759869;80;20966;-62
2022/02/24 02:47:36;;;;;;;5.05;2.75;;;;;;;5.13;81.99;99562.29;1760627;80;20995;-62
2022/02/24 02:50:04;;;;;;;5.40;2.77;;;;;;;5.13;82.00;99558.81;1754485;80;21122;-63
2022/02/24 02:52:30;;;;;;;5.00;3.30;;;;;;;5.13;82.02;99562.77;1743729;82;20929;-62
2022/02/24 02:55:04;;;;;;;5.45;3.00;;;;;;;5.14;82.04;99568.38;1744285;82;21572;-62
2022/02/24 02:57:31;;;;;;;4.67;2.90;;;;;;;5.16;81.98;99575.69;1757695;80;20942;-62
2022/02/24 02:59:58;;;;;;;4.58;2.67;;;;;;;5.16;81.95;99573.89;1753428;80;21550;-62
2022/02/24 03:02:25;;;;;;;4.85;3.22;;;;;;;5.16;81.93;99579.65;1732818;80;21120;-62
2022/02/24 03:04:52;;;;;;;3.85;2.42;;;;;;;5.15;81.93;99585.40;1740849;80;20853;-63
2022/02/24 03:07:19;;;;;;;4.75;3.25;;;;;;;5.15;81.93;99584.56;1764836;80;21386;-61
2022/02/24 03:09:45;;;;;;;4.17;2.98;;;;;;;5.16;81.93;99584.92;1766236;80;20913;-63
2022/02/24 03:12:12;;;;;;;4.35;2.70;;;;;;;5.18;81.88;99593.53;1745744;80;20901;-62
2022/02/24 03:14:39;;;;;;;4.10;2.80;;;;;;;5.18;81.83;99597.00;1751785;80;21243;-62
2022/02/24 03:17:06;;;;;;;4.55;2.98;;;;;;;5.19;81.86;99600.48;1762290;80;21590;-63
2022/02/24 03:19:34;;;;;;;3.67;2.98;;;;;;;5.19;81.78;99603.13;1750213;80;20952;-62
2022/02/24 03:22:00;;;;;;;5.42;2.95;;;;;;;5.16;81.78;99612.14;1768288;80;21556;-62
2022/02/24 03:24:27;;;;;;;5.00;3.25;;;;;;;5.17;81.80;99607.67;1755424;80;20955;-63
2022/02/24 03:26:53;;;;;;;4.40;3.22;;;;;;;5.17;81.79;99615.58;1763025;80;21156;-62
2022/02/24 03:29:19;;;;;;;4.50;3.15;;;;;;;5.16;81.77;99620.05;1752863;80;20846;-62
2022/02/24 03:31:46;;;;;;;3.77;3.30;;;;;;;5.16;81.81;99617.41;1748941;80;21444;-62
2022/02/24 03:34:13;;;;;;;5.10;3.00;;;;;;;5.17;81.84;99624.81;1766402;80;20896;-62
2022/02/24 03:36:39;;;;;;;5.12;3.08;;;;;;;5.16;81.74;99625.32;1756149;80;20887;-62
2022/02/24 03:39:06;;;;;;;3.67;3.08;;;;;;;5.15;81.73;99624.96;1760310;80;21200;-61
2022/02/24 03:41:33;;;;;;;6.15;3.20;;;;;;;5.17;81.82;99629.61;1690647;84;20894;-62
2022/02/24 03:44:00;;;;;;;4.40;3.10;;;;;;;5.17;81.82;99626.13;1746230;80;20929;-63
2022/02/24 03:46:26;;;;;;;3.22;2.77;;;;;;;5.16;81.89;99635.87;1744456;80;21585;-63
2022/02/24 03:48:53;;;;;;;4.10;2.80;;;;;;;5.17;81.89;99635.36;1766472;80;20989;-62
2022/02/24 03:51:19;;;;;;;3.77;2.85;;;;;;;5.17;81.89;99627.45;1753159;80;21154;-63
2022/02/24 03:53:46;;;;;;;4.28;3.00;;;;;;;5.19;81.90;99628.17;1744702;80;20989;-62
2022/02/24 03:56:12;;;;;;;5.53;3.37;;;;;;;5.18;81.85;99627.81;1748148;80;21564;-62
2022/02/24 03:58:38;;;;;;;3.98;2.95;;;;;;;5.17;82.03;99631.41;1760090;80;20990;-63
2022/02/24 04:01:05;;;;;;;3.87;2.83;;;;;;;5.18;82.01;99630.45;1770898;80;20931;-63
2022/02/24 04:03:32;;;;;;;3.10;2.80;;;;;;;5.18;81.94;99632.61;1766233;80;21157;-62
2022/02/24 04:05:59;;;;;;;3.55;3.15;;;;;;;5.18;81.96;99626.50;1749257;80;20982;-63
2022/02/24 04:08:25;;;;;;;4.67;3.12;;;;;;;5.19;82.00;99626.86;1768591;80;21659;-63
2022/02/24 04:10:52;;;;;;;4.83;3.25;;;;;;;5.19;82.01;99633.45;1747833;80;21090;-62
2022/02/24 04:13:18;;;;;;;4.45;4.05;;;;;;;5.20;82.02;99639.06;1750383;80;20935;-63
2022/02/24 04:15:46;;;;;;;7.40;6.65;;;;;;;5.21;81.94;99642.06;1753370;80;21568;-61
2022/02/24 04:18:13;;;;;;;7.95;6.12;;;;;;;5.22;81.95;99650.30;1748374;80;20892;-62
2022/02/24 04:20:39;;;;;;;9.75;8.75;;;;;;;5.22;81.90;99646.34;1733088;82;20896;-62
2022/02/24 04:23:06;;;;;;;6.10;5.42;;;;;;;5.23;81.95;99655.95;1727575;82;21087;-63
2022/02/24 04:25:32;;;;;;;5.20;4.65;;;;;;;5.23;82.01;99659.91;1723041;82;20912;-63
2022/02/24 04:27:59;;;;;;;5.10;4.10;;;;;;;5.23;82.09;99663.38;1719971;82;21769;-64
2022/02/24 04:30:25;;;;;;;4.15;3.62;;;;;;;5.23;82.11;99661.22;1711623;82;20992;-62
2022/02/24 04:32:52;;;;;;;5.05;3.25;;;;;;;5.23;82.12;99664.70;1721566;82;21492;-63
2022/02/24 04:35:18;;;;;;;4.22;3.47;;;;;;;5.21;82.16;99669.75;1710658;82;21081;-63
2022/02/24 04:37:45;;;;;;;4.30;3.83;;;;;;;5.19;82.36;99668.55;1711302;82;21007;-63
2022/02/24 04:40:12;;;;;;;5.03;4.53;;;;;;;5.20;82.44;99678.14;1713847;82;21149;-62
2022/02/24 04:42:46;;;;;;;5.50;3.35;;;;;;;5.19;82.45;99680.92;1709136;82;20999;-63
2022/02/24 04:45:14;;;;;;;4.33;3.17;;;;;;;5.20;82.57;99679.46;1731813;82;20937;-62
2022/02/24 04:47:40;;;;;;;3.77;3.30;;;;;;;5.23;82.78;99684.95;1717620;82;20947;-64
2022/02/24 04:50:08;;;;;;;3.98;3.50;;;;;;;5.21;82.85;99686.90;1721203;82;21016;-62
2022/02/24 04:52:37;;;;;;;5.65;3.92;;;;;;;5.19;83.09;99692.80;1724018;82;21148;-62
2022/02/24 04:55:07;;;;;;;5.28;4.20;;;;;;;5.18;83.21;99701.66;1715387;82;21509;-62
2022/02/24 04:57:33;;;;;;;4.58;4.17;;;;;;;5.15;83.54;99704.55;1710809;82;20927;-63
2022/02/24 05:00:00;;;;;;;5.15;4.17;;;;;;;5.14;83.62;99705.52;1721488;82;21134;-66
2022/02/24 05:02:26;;;;;;;5.33;4.67;;;;;;;5.12;83.62;99708.77;1715211;82;21046;-64
2022/02/24 05:04:53;;;;;;;5.00;4.40;;;;;;;5.12;84.04;99717.52;1714823;82;21051;-64
2022/02/24 05:07:19;;;;;;;5.67;4.80;;;;;;;5.12;84.07;99726.75;1723057;82;21053;-63
2022/02/24 05:09:46;;;;;;;6.58;4.75;;;;;;;5.12;84.14;99735.98;1720610;82;21542;-62
2022/02/24 05:12:12;;;;;;;5.47;4.97;;;;;;;5.11;84.21;99738.25;1717815;82;21031;-63
2022/02/24 05:14:39;;;;;;;5.65;5.00;;;;;;;5.11;84.19;99745.36;1722131;82;21334;-63
2022/02/24 05:17:05;;;;;;;5.60;4.95;;;;;;;5.10;84.12;99743.19;1723707;82;21101;-63
2022/02/24 05:19:32;;;;;;;6.08;4.83;;;;;;;5.10;84.10;99752.42;1722108;82;20892;-62
2022/02/24 05:21:58;;;;;;;6.40;5.53;;;;;;;5.10;84.11;99756.86;1730254;82;21537;-62
2022/02/24 05:24:24;;;;;;;6.15;4.65;;;;;;;5.10;84.20;99760.34;1721290;82;21044;-59
2022/02/24 05:26:51;;;;;;;5.35;4.75;;;;;;;5.12;84.22;99768.11;1719700;82;20995;-63
2022/02/24 05:29:17;;;;;;;5.20;4.70;;;;;;;5.12;84.25;99768.95;1725998;82;21150;-63
2022/02/24 05:31:44;;;;;;;4.58;3.95;;;;;;;5.10;84.36;99770.89;1724262;82;21513;-62
2022/02/24 05:34:10;;;;;;;6.12;3.58;;;;;;;5.09;84.40;99778.43;1727403;82;20939;-63
2022/02/24 05:36:38;;;;;;;6.50;3.37;;;;;;;5.09;84.61;99781.55;1723901;82;20943;-63
2022/02/24 05:39:05;;;;;;;5.25;3.35;;;;;;;5.08;84.56;99774.61;1727024;82;20999;-63
2022/02/24 05:41:32;;;;;;;4.70;3.42;;;;;;;5.08;84.64;99778.57;1727229;82;21151;-62
2022/02/24 05:43:58;;;;;;;4.35;3.33;;;;;;;5.08;84.78;99776.78;1714348;82;21247;-62
2022/02/24 05:46:25;;;;;;;4.28;3.85;;;;;;;5.09;84.99;99769.67;1722414;82;20995;-63
2022/02/24 05:48:52;;;;;;;6.30;4.28;;;;;;;5.10;85.05;99770.05;1724804;82;21131;-63
2022/02/24 05:51:18;;;;;;;6.42;4.72;;;;;;;5.10;85.12;99788.03;1724487;82;21071;-62
2022/02/24 05:53:44;;;;;;;4.72;4.22;;;;;;;5.09;84.95;99785.50;1724331;82;21982;-63
2022/02/24 05:56:10;;;;;;;5.10;4.60;;;;;;;5.09;84.87;99789.45;1724130;82;20928;-62
2022/02/24 05:58:37;;;;;;;9.45;5.75;;;;;;;5.10;84.86;99801.21;1708525;82;21545;-63
2022/02/24 06:01:03;;;;;;;6.65;5.78;;;;;;;5.12;84.91;99801.07;1709398;83;21479;-64
2022/02/24 06:03:30;;;;;;;6.87;5.25;;;;;;;5.12;84.89;99805.03;1708958;83;20901;-63
2022/02/24 06:05:57;;;;;;;9.43;8.43;;;;;;;5.11;84.86;99808.14;1708523;83;21158;-63
2022/02/24 06:08:25;;;;;;;7.85;6.85;;;;;;;5.11;84.78;99809.46;1708589;83;20929;-64
2022/02/24 06:10:51;;;;;;;7.72;6.45;;;;;;;5.12;84.78;99820.38;1718723;82;21497;-63
2022/02/24 06:13:18;;;;;;;6.87;6.22;;;;;;;5.14;84.73;99826.35;1716009;82;21004;-65
2022/02/24 06:15:45;;;;;;;6.37;5.78;;;;;;;5.16;84.71;99827.56;1702105;83;20961;-63
2022/02/24 06:18:16;;;;;;;6.10;5.60;;;;;;;5.15;84.73;99834.63;1707333;83;22362;-64
2022/02/24 06:20:42;;;;;;;5.80;5.30;;;;;;;5.15;85.12;99835.11;1746866;81;21031;-60
2022/02/24 06:23:08;;;;;;;6.20;5.60;;;;;;;5.17;85.25;99846.36;1677869;83;21561;-62
2022/02/24 06:25:34;;;;;;;6.08;5.47;;;;;;;5.17;85.79;99841.08;1679606;83;21031;-61
2022/02/24 06:28:01;;;;;;;7.42;6.20;;;;;;;5.19;86.31;99847.09;1693923;83;21518;-63
2022/02/24 06:30:27;;;;;;;8.20;6.75;;;;;;;5.22;86.12;99851.61;1684322;83;21355;-62
2022/02/24 06:32:54;;;;;;;7.28;6.37;;;;;;;5.25;86.77;99847.87;1704056;83;20876;-62
2022/02/24 06:35:20;;;;;;;6.35;5.65;;;;;;;5.26;86.60;99845.14;1749219;81;20921;-65
2022/02/24 06:37:47;;;;;;;6.47;5.87;;;;;;;5.29;86.24;99853.27;1742885;81;20992;-64
2022/02/24 06:40:14;;;;;;;6.62;5.90;;;;;;;5.31;86.37;99850.02;1752647;81;20987;-70
2022/02/24 06:42:40;;;;;;;6.80;6.17;;;;;;;5.34;86.23;99859.84;1749859;81;21218;-65
2022/02/24 06:45:08;;;;;;;5.55;5.05;;;;;;;5.34;86.00;99857.20;1747370;81;21552;-63
2022/02/24 06:47:37;;;;;;;6.05;5.45;;;;;;;5.36;86.09;99860.55;1704120;83;21509;-65
2022/02/24 06:50:05;;;;;;;6.40;5.60;;;;;;;5.37;85.81;99862.70;1755502;81;20940;-64
2022/02/24 06:52:31;;;;;;;6.15;5.55;;;;;;;5.37;85.56;99862.70;1746115;81;20892;-63
2022/02/24 06:54:58;;;;;;;5.80;5.30;;;;;;;5.37;85.49;99865.34;1748122;81;21863;-63
2022/02/24 06:57:25;;;;;;;8.20;5.62;;;;;;;5.39;85.39;99863.41;1738254;81;20967;-63
2022/02/24 06:59:51;;;;;;;6.20;4.72;;;;;;;5.39;85.23;99870.84;1739617;81;21046;-63
2022/02/24 07:02:18;;;;;;;5.30;4.70;;;;;;;5.38;85.17;99873.13;1733923;81;21156;-63
2022/02/24 07:04:44;;;;;;;5.92;5.22;;;;;;;5.41;85.23;99877.30;1739437;81;21011;-62
2022/02/24 07:07:11;;;;;;;5.60;5.10;;;;;;;5.42;85.20;99872.39;1692511;83;21166;-62
2022/02/24 07:09:37;;;;;;;7.33;6.47;;;;;;;5.44;85.08;99877.05;1738297;81;20982;-63
2022/02/24 07:12:04;;;;;;;6.87;6.00;;;;;;;5.46;85.01;99881.72;1705693;83;21024;-64
2022/02/24 07:14:32;;;;;;;8.53;7.67;;;;;;;5.48;84.87;99887.69;1747451;81;21631;-63
2022/02/24 07:16:59;;;;;;;8.05;6.53;;;;;;;5.47;84.85;99896.12;1742786;81;21059;-63
2022/02/24 07:19:25;;;;;;;7.58;6.47;;;;;;;5.49;84.78;99898.61;1707515;82;21879;-63
2022/02/24 07:21:53;;;;;;;5.30;4.80;;;;;;;5.51;84.69;99900.63;1736720;80;20947;-63
2022/02/24 07:24:20;;;;;;;5.00;4.03;;;;;;;5.54;84.61;99899.06;1727593;81;21481;-63
2022/02/24 07:26:46;;;;;;;4.67;3.87;;;;;;;5.57;84.48;99904.94;1743643;81;20944;-64
2022/02/24 07:29:12;;;;;;;4.28;3.77;;;;;;;5.60;84.37;99907.80;1747619;81;21161;-65
2022/02/24 07:31:39;;;;;;;4.42;4.03;;;;;;;5.62;84.26;99913.78;1731285;81;21481;-61
2022/02/24 07:34:06;;;;;;;5.17;4.10;;;;;;;5.63;84.22;99912.31;1727951;81;20952;-65
2022/02/24 07:36:33;;;;;;;5.70;3.77;;;;;;;5.65;84.02;99908.73;1735853;80;21045;-63
2022/02/24 07:38:59;;;;;;;6.62;4.80;;;;;;;5.67;83.79;99913.39;1738264;80;21001;-62
2022/02/24 07:41:26;;;;;;;5.85;4.60;;;;;;;5.68;83.73;99910.64;1723458;81;21719;-61
2022/02/24 07:43:53;;;;;;;4.70;4.30;;;;;;;5.69;83.59;99908.80;1741669;80;21145;-63
2022/02/24 07:46:19;;;;;;;4.83;4.37;;;;;;;5.70;88.73;99919.25;1734686;80;21398;-63
2022/02/24 07:48:46;;;;;;;6.40;4.47;;;;;;;5.70;84.16;99916.61;1748973;80;21005;-62
2022/02/24 07:51:12;;;;;;;7.50;4.70;;;;;;;5.70;83.76;99921.05;1740764;80;20923;-62
2022/02/24 07:53:39;;;;;;;7.03;5.78;;;;;;;5.69;83.49;99918.05;1713483;81;21127;-62
2022/02/24 07:56:05;;;;;;;6.05;5.40;;;;;;;5.72;83.40;99925.72;1740713;81;21141;-62
2022/02/24 07:58:31;;;;;;;7.90;6.03;;;;;;;5.74;83.29;99923.30;1720986;81;21491;-65
2022/02/24 08:00:58;;;;;;;6.78;5.15;;;;;;;5.76;83.07;99928.47;1741614;80;20990;-63
2022/02/24 08:03:25;;;;;;;6.03;5.00;;;;;;;5.78;82.97;99931.81;1736665;80;20967;-62
2022/02/24 08:05:54;;;;;;;5.47;4.42;;;;;;;5.80;82.78;99932.03;1728619;80;21410;-63
2022/02/24 08:08:20;;;;;;;5.28;4.78;;;;;;;5.83;82.70;99934.90;1729072;81;21208;-65
2022/02/24 08:10:48;;;;;;;4.97;4.47;;;;;;;5.87;82.60;99930.57;1727639;80;21556;-63
2022/02/24 08:13:15;;;;;;;5.15;4.22;;;;;;;5.94;82.53;99938.35;1726610;81;21638;-65
2022/02/24 08:15:43;;;;;;;4.35;3.95;;;;;;;5.96;82.05;99935.09;1726442;82;21118;-65
2022/02/24 08:18:10;;;;;;;4.40;3.80;;;;;;;6.03;81.87;99936.23;1717546;82;21007;-63
2022/02/24 08:20:37;;;;;;;4.53;4.00;;;;;;;6.10;81.82;99941.84;1724257;82;21139;-67
2022/02/24 08:23:04;;;;;;;5.40;4.45;;;;;;;6.15;81.57;99929.89;1758077;80;21446;-63
2022/02/24 08:25:33;;;;;;;4.92;4.53;;;;;;;6.22;81.20;99928.90;1748730;80;21091;-65
2022/02/24 08:28:00;;;;;;;6.50;4.92;;;;;;;6.28;81.10;99931.50;1722381;82;21008;-65
2022/02/24 08:30:27;;;;;;;5.42;4.60;;;;;;;6.28;80.70;99929.70;1765676;80;21076;-64
2022/02/24 08:32:54;;;;;;;4.75;4.00;;;;;;;6.28;80.44;99932.34;1763852;80;21154;-65
2022/02/24 08:35:21;;;;;;;5.55;4.58;;;;;;;6.31;80.39;99940.49;1743554;80;20915;-64
2022/02/24 08:37:48;;;;;;;5.62;4.40;;;;;;;6.34;80.13;99933.59;1739857;80;21544;-64
2022/02/24 08:40:20;;;;;;;5.03;4.53;;;;;;;6.37;79.78;99934.17;1763137;80;21612;-65
2022/02/24 08:42:48;;;;;;;6.60;6.00;;;;;;;6.37;79.46;99928.89;1747374;80;21636;-63
2022/02/24 08:45:14;;;;;;;6.00;5.40;;;;;;;6.40;79.29;99933.08;1738897;80;21146;-64
2022/02/24 08:47:41;;;;;;;7.00;6.30;;;;;;;6.43;78.96;99930.17;1757445;80;20970;-64
2022/02/24 08:50:10;;;;;;;9.73;8.78;;;;;;;6.45;78.71;99925.58;1751745;80;21538;-63
2022/02/24 08:52:37;;;;;;;7.40;6.70;;;;;;;6.45;78.59;99929.06;1760226;80;21054;-63
2022/02/24 08:55:04;;;;;;;6.12;5.42;;;;;;;6.47;78.33;99928.92;1717680;82;20933;-62
2022/02/24 08:57:30;;;;;;;4.12;3.72;;;;;;;6.49;78.10;99929.65;1712577;82;21932;-63
2022/02/24 08:59:57;;;;;;;4.12;3.72;;;;;;;6.51;77.79;99929.02;1767530;80;20975;-66
2022/02/24 09:02:23;;;;;;;3.65;3.30;;;;;;;6.51;77.65;99925.90;1754134;80;20905;-65
2022/02/24 09:04:50;;;;;;;3.50;3.20;;;;;;;6.55;77.87;99926.45;1745573;80;20927;-63
2022/02/24 09:07:16;;;;;;;3.85;3.10;;;;;;;6.55;77.76;99927.77;1745250;80;20993;-63
2022/02/24 09:09:43;;;;;;;3.83;3.50;;;;;;;6.56;77.47;99926.33;1744122;81;21106;-63
2022/02/24 09:12:11;;;;;;;3.35;3.05;;;;;;;6.56;77.21;99924.17;1745490;80;20987;-64
2022/02/24 09:14:37;;;;;;;4.30;3.50;;;;;;;6.57;77.03;99929.81;1767478;80;20988;-65
2022/02/24 09:17:05;;;;;;;3.27;2.98;;;;;;;6.58;76.81;99928.83;1753336;80;21018;-64
2022/02/24 09:19:32;;;;;;;3.30;2.80;;;;;;;6.56;76.62;99929.45;1746911;80;21426;-64
2022/02/24 09:21:59;;;;;;;2.52;2.33;;;;;;;6.59;76.43;99930.52;1735528;82;21166;-65
2022/02/24 09:24:25;;;;;;;3.42;3.10;;;;;;;6.62;76.17;99934.22;1734488;82;21033;-64
2022/02/24 09:26:52;;;;;;;3.10;2.80;;;;;;;6.62;75.75;99932.89;1735549;82;20863;-66
2022/02/24 09:29:18;;;;;;;3.08;2.80;;;;;;;6.63;75.76;99938.03;1735305;81;21023;-63
2022/02/24 09:31:45;;;;;;;2.85;2.58;;;;;;;6.69;75.66;99931.38;1735319;82;21839;-64
2022/02/24 09:34:12;;;;;;;3.52;2.80;;;;;;;6.71;75.30;99928.11;1724483;82;21159;-64
2022/02/24 09:36:39;;;;;;;3.20;2.90;;;;;;;6.75;74.99;99929.53;1740061;81;20957;-63
2022/02/24 09:39:05;;;;;;;2.83;2.52;;;;;;;6.75;74.61;99925.56;1733824;82;21531;-63
2022/02/24 09:41:31;;;;;;;3.77;3.40;;;;;;;6.76;74.39;99923.25;1727926;82;20907;-64
2022/02/24 09:43:58;;;;;;;3.40;3.10;;;;;;;6.77;74.38;99926.25;1719907;82;21003;-64
2022/02/24 09:46:26;;;;;;;4.85;4.35;;;;;;;6.83;74.45;99923.05;1734973;82;21811;-64
2022/02/24 09:48:52;;;;;;;4.70;4.20;;;;;;;6.90;74.36;99922.03;1735198;82;21436;-65
2022/02/24 09:51:19;;;;;;;5.87;4.85;;;;;;;6.95;74.28;99920.66;1734366;81;20906;-65
2022/02/24 09:53:46;;;;;;;5.00;4.50;;;;;;;7.03;73.96;99910.70;1734926;82;20967;-66
2022/02/24 09:56:17;;;;;;;4.60;4.20;;;;;;;7.11;73.70;99911.70;1735773;82;20917;-64
2022/02/24 09:58:45;;;;;;;4.20;3.90;;;;;;;7.20;73.37;99910.86;1734586;82;21131;-63
2022/02/24 10:01:14;;;;;;;3.65;3.35;;;;;;;7.31;73.07;99912.05;1731777;82;20950;-65
2022/02/24 10:04:02;;;;;;;3.75;3.45;;;;;;;7.46;72.66;99911.97;1729677;82;20932;-65
2022/02/24 10:06:38;;;;;;;4.83;4.42;;;;;;;7.64;72.24;99909.95;1716509;82;20918;-66
2022/02/24 10:09:10;;;;;;;5.53;4.60;;;;;;;7.77;71.31;99899.91;1727695;81;21542;-65
2022/02/24 10:11:44;;;;;;;4.00;3.60;;;;;;;7.85;70.80;99898.67;1737746;82;21148;-66
2022/02/24 10:14:10;;;;;;;4.90;4.40;;;;;;;7.88;70.52;99896.59;1732125;82;20960;-64
2022/02/24 10:17:02;;;;;;;4.83;4.42;;;;;;;7.89;70.23;99896.10;1736813;82;21009;-66
2022/02/24 10:19:44;;;;;;;5.08;3.60;;;;;;;7.87;69.84;99896.74;1733691;82;20956;-65
2022/02/24 10:22:19;;;;;;;3.70;3.40;;;;;;;7.83;69.58;99892.69;1725312;82;21266;-66
2022/02/24 10:25:02;;;;;;;4.17;3.67;;;;;;;7.80;69.35;99896.46;1731802;81;24932;-66
2022/02/24 10:27:34;;;;;;;2.90;2.60;;;;;;;7.79;69.32;99893.48;1752622;81;20955;-66
2022/02/24 10:30:13;;;;;;;3.15;2.95;;;;;;;7.84;69.27;99894.37;1738571;81;20979;-65
2022/02/24 10:32:43;;;;;;;3.30;3.00;;;;;;;7.91;69.21;99887.52;1740077;81;20984;-64
2022/02/24 10:35:30;;;;;;;4.60;3.47;;;;;;;8.03;69.28;99886.36;1740206;81;21533;-67
2022/02/24 10:38:08;;;;;;;3.95;3.55;;;;;;;8.12;69.18;99889.48;1729744;81;20961;-64
2022/02/24 10:40:41;;;;;;;3.75;3.37;;;;;;;8.31;69.21;99880.66;1739891;81;20961;-64
2022/02/24 10:43:19;;;;;;;3.92;2.70;;;;;;;8.59;68.88;99880.52;1729221;82;21547;-66
2022/02/24 10:46:12;;;;;;;3.15;2.52;;;;;;;8.84;67.69;99880.28;1745765;81;20952;-65
2022/02/24 10:48:54;;;;;;;2.50;2.15;;;;;;;8.95;66.44;99873.44;1736293;81;21130;-66
2022/02/24 10:51:31;;;;;;;2.92;2.50;;;;;;;9.04;65.15;99870.38;1757536;81;21053;-65
2022/02/24 10:54:05;;;;;;;2.90;2.60;;;;;;;9.04;64.33;99867.73;1734665;81;20974;-65
2022/02/24 10:56:40;;;;;;;2.75;2.55;;;;;;;9.12;63.99;99865.16;1751520;81;21041;-67
2022/02/24 10:59:06;;;;;;;3.17;2.92;;;;;;;9.17;63.47;99866.38;1739210;81;20996;-64
2022/02/24 11:01:33;;;;;;;4.47;3.17;;;;;;;9.15;62.66;99859.55;1741857;81;20995;-65
2022/02/24 11:04:02;;;;;;;3.20;2.90;;;;;;;9.05;62.38;99857.44;1755014;81;22008;-64
2022/02/24 11:06:36;;;;;;;2.90;2.22;;;;;;;9.02;62.79;99851.94;1744443;81;20974;-63
2022/02/24 11:09:05;;;;;;;2.65;2.45;;;;;;;9.06;62.82;99861.28;1749331;81;21462;-63
2022/02/24 11:11:36;;;;;;;2.42;2.22;;;;;;;9.04;62.07;99855.79;1695817;83;21565;-64
2022/02/24 11:14:08;;;;;;;3.08;2.75;;;;;;;8.99;61.62;99859.39;1745455;81;20939;-65
2022/02/24 11:16:34;;;;;;;2.90;2.55;;;;;;;8.99;61.54;99856.73;1750387;81;21177;-67
2022/02/24 11:19:00;;;;;;;2.70;2.50;;;;;;;9.02;61.59;99853.78;1748873;81;21490;-64
2022/02/24 11:21:30;;;;;;;2.72;2.27;;;;;;;9.05;61.66;99843.68;1714384;82;21087;-67
2022/02/24 11:23:57;;;;;;;3.47;2.27;;;;;;;9.14;61.51;99848.58;1750105;80;22442;-66
2022/02/24 11:26:33;;;;;;;3.45;2.77;;;;;;;9.21;60.75;99849.14;1749843;80;20928;-64
2022/02/24 11:29:08;;;;;;;2.37;2.17;;;;;;;9.23;60.63;99848.98;1761953;80;21199;-66
2022/02/24 11:31:52;;;;;;;1.87;1.60;;;;;;;9.28;60.48;99840.09;1751190;80;21047;-65
2022/02/24 11:34:58;;;;;;;4.28;1.90;;;;;;;9.33;59.83;99840.46;1757814;80;21528;-64
2022/02/24 11:37:41;;;;;;;2.25;1.80;;;;;;;9.31;59.43;99837.10;1745551;80;20960;-66
2022/02/24 11:40:24;;;;;;;4.28;2.33;;;;;;;9.22;59.26;99837.55;1719756;80;21071;-68
2022/02/24 11:43:25;;;;;;;5.12;2.92;;;;;;;9.18;59.30;99836.66;1743576;80;21834;-66
2022/02/24 11:45:56;;;;;;;6.37;4.08;;;;;;;9.15;59.61;99833.81;1761075;80;20986;-63